< Cyclone 201926 2020 Season Cyclone 202003 >
Cyclone 202002 (Blake)
General InformationTrack Information on Google MapsDetailed Wind InformationList of All Images || ResourceGoogle EarthGE AnimationAtom FeedGeoJSON
Detalied Best Track (Time Zone = UTC)
Year Month Day Hour Lat. Long. Pressure (hPa) Wind (kt) Class Image Chart
2020 1 4 00 -13.7 122.2 1005 15 2 Image --
2020 1 4 06 -13.8 122.1 1000 20 2 Image --
2020 1 4 12 -13.9 122.0 1000 25 2 Image --
2020 1 4 18 -14.9 121.5 998 25 2 Image --
2020 1 5 00 -15.9 121.0 1000 25 2 Image --
2020 1 5 06 -15.6 121.1 998 30 2 Image --
2020 1 5 12 -15.4 121.2 996 30 2 Image --
2020 1 5 18 -15.7 121.5 993 35 3 Image --
2020 1 6 00 -15.9 122.0 993 40 3 Image --
2020 1 6 06 -16.7 122.3 991 40 3 Image --
2020 1 6 09 -17.1 122.3 992 40 3 Image --
2020 1 6 12 -17.3 122.4 993 40 3 Image --
2020 1 6 18 -17.6 122.1 991 35 3 Image --
2020 1 7 00 -18.0 121.6 989 40 3 Image --
2020 1 7 06 -18.7 121.1 990 40 3 Image --
2020 1 7 12 -19.3 121.0 986 40 3 Image --
2020 1 7 15 -19.7 120.8 986 40 3 Image --
2020 1 7 18 -19.9 120.5 993 30 2 Image --
2020 1 8 00 -20.0 119.7 994 30 2 Image --
2020 1 8 06 -20.2 119.5 994 30 2 Image --
< Cyclone 201926 2020 Season Cyclone 202003 >

Help